Time;durP1;ratioP1;P1;durP2;ratioP2;P2;SDS_P1;SDS_P2;PMS_P1;PMS_P2;Temp;Humidity;BMP_temperature;BMP_pressure;BME280_temperature;BME280_humidity;BME280_pressure;Samples;Min_cycle;Max_cycle;Signal;HPM_P1;HPM_P2
2022/08/22 00:02:28;;;;;;;2.22;1.00;;;;;;;28.12;40.84;96187.69;5033694;28;20032;-33
2022/08/22 00:05:18;;;;;;;1.00;0.90;;;;;;;28.14;41.01;96185.09;5033741;28;20072;-33
2022/08/22 00:07:53;;;;;;;1.02;0.93;;;;;;;28.12;40.84;96182.84;5033520;28;20049;-33
2022/08/22 00:10:30;;;;;;;1.92;1.20;;;;;;;28.16;40.79;96179.72;5033663;28;20025;-33
2022/08/22 00:13:15;;;;;;;1.50;0.88;;;;;;;28.13;40.77;96175.97;5038587;28;20029;-33
2022/08/22 00:15:58;;;;;;;1.52;0.90;;;;;;;28.12;40.08;96180.06;5052319;28;20482;-33
2022/08/22 00:18:23;;;;;;;;;;;;;;;28.11;40.74;96170.22;5053867;28;20052;-33
2022/08/22 00:20:55;;;;;;;1.30;1.20;;;;;;;28.12;40.51;96176.53;5053314;28;19963;-33
2022/08/22 00:23:31;;;;;;;0.90;0.80;;;;;;;28.13;40.65;96175.97;5052057;28;20382;-33
2022/08/22 00:26:01;;;;;;;0.98;0.88;;;;;;;28.14;40.46;96168.38;5053275;28;20037;-33
2022/08/22 00:28:29;;;;;;;1.65;0.93;;;;;;;28.13;40.76;96162.03;5053077;28;20025;-33
2022/08/22 00:31:01;;;;;;;1.00;0.90;;;;;;;28.16;40.80;96163.75;5053540;28;20025;-33
2022/08/22 00:33:41;;;;;;;1.10;0.93;;;;;;;28.09;40.50;96169.25;5053192;28;20025;-33
2022/08/22 00:36:15;;;;;;;0.80;0.70;;;;;;;28.06;40.25;96173.91;5053125;28;20484;-33
2022/08/22 00:38:48;;;;;;;1.45;0.90;;;;;;;28.08;40.48;96160.16;5053251;28;20083;-33
2022/08/22 00:41:37;;;;;;;1.27;1.08;;;;;;;28.12;40.03;96168.16;5053209;28;20020;-33
2022/08/22 00:44:03;;;;;;;0.93;0.80;;;;;;;28.17;40.13;96164.47;5072519;28;20123;-33
2022/08/22 00:46:47;;;;;;;1.33;0.95;;;;;;;28.13;40.09;96162.03;5073248;28;20106;-33
2022/08/22 00:49:53;;;;;;;1.05;0.90;;;;;;;28.10;40.08;96162.38;5073175;28;20021;-33
2022/08/22 00:53:01;;;;;;;0.80;0.80;;;;;;;28.08;40.35;96149.00;5072841;28;20482;-33
2022/08/22 00:55:55;;;;;;;1.10;0.80;;;;;;;28.09;39.97;96155.31;4991614;28;20046;-33
2022/08/22 00:58:41;;;;;;;0.70;0.63;;;;;;;28.09;39.92;96144.91;4991750;28;20183;-33
2022/08/22 01:01:11;;;;;;;1.00;0.90;;;;;;;28.11;40.00;96153.47;4991763;28;20543;-33
2022/08/22 01:03:55;;;;;;;1.38;1.00;;;;;;;28.13;39.70;96152.94;4991637;28;20029;-33
2022/08/22 01:06:43;;;;;;;1.23;0.90;;;;;;;28.07;39.90;96144.72;4991729;28;20034;-33
2022/08/22 01:09:09;;;;;;;1.45;0.90;;;;;;;28.07;39.91;96144.72;4991170;28;20504;-33
2022/08/22 01:12:01;;;;;;;1.52;0.95;;;;;;;28.14;39.87;96143.28;4991583;28;20092;-33
2022/08/22 01:14:44;;;;;;;0.70;0.70;;;;;;;28.09;40.00;96146.97;4991978;28;20026;-33
2022/08/22 01:17:16;;;;;;;0.90;0.80;;;;;;;28.12;39.71;96135.47;4991439;28;20031;-33
2022/08/22 01:20:20;;;;;;;0.88;0.80;;;;;;;28.08;40.11;96145.47;4991609;28;20043;-33
2022/08/22 01:23:00;;;;;;;1.05;0.85;;;;;;;28.07;39.99;96144.72;4988562;28;20034;-33
2022/08/22 01:25:47;;;;;;;1.10;0.77;;;;;;;28.02;39.84;96148.44;4991538;28;20064;-33
2022/08/22 01:28:12;;;;;;;0.80;0.70;;;;;;;28.05;39.69;96146.59;4991718;28;20038;-33
2022/08/22 01:31:09;;;;;;;1.00;0.90;;;;;;;28.07;39.30;96150.28;4991454;28;20479;-33
2022/08/22 01:33:59;;;;;;;1.08;0.98;;;;;;;27.99;39.16;96149.53;5069769;28;20063;-33
2022/08/22 01:36:48;;;;;;;0.90;0.80;;;;;;;28.09;39.66;96152.53;5072828;28;20036;-33
2022/08/22 01:39:34;;;;;;;0.65;0.60;;;;;;;27.96;39.60;96153.41;5072702;28;20024;-33
2022/08/22 01:42:19;;;;;;;1.00;0.90;;;;;;;27.97;38.82;96148.56;5076182;28;20024;-33
2022/08/22 01:45:02;;;;;;;0.63;0.60;;;;;;;27.98;39.60;96145.25;5076104;28;20469;-33
2022/08/22 01:47:41;;;;;;;1.80;0.80;;;;;;;27.97;39.55;96143.00;5076213;28;20025;-33
2022/08/22 01:50:35;;;;;;;0.85;0.70;;;;;;;27.97;39.38;96149.31;5076305;28;20020;-33
2022/08/22 01:53:07;;;;;;;1.05;0.80;;;;;;;28.00;39.51;96148.22;5076103;28;20028;-33
2022/08/22 01:55:36;;;;;;;1.25;0.90;;;;;;;28.03;39.58;96143.59;5075994;28;20478;-33
2022/08/22 01:58:14;;;;;;;0.98;0.85;;;;;;;28.02;39.35;96142.84;5075998;28;20388;-33
2022/08/22 02:01:07;;;;;;;0.70;0.70;;;;;;;28.04;39.43;96145.84;5075868;28;20024;-33
2022/08/22 02:03:50;;;;;;;0.88;0.70;;;;;;;28.02;39.62;96148.44;5075873;28;20024;-33
2022/08/22 02:06:23;;;;;;;2.33;0.75;;;;;;;28.05;39.03;96141.75;5075783;28;20021;-33
2022/08/22 02:09:09;;;;;;;0.70;0.70;;;;;;;28.01;39.12;96148.97;5076090;28;20036;-33
2022/08/22 02:11:37;;;;;;;0.98;0.70;;;;;;;28.00;38.54;96139.13;5075873;28;20032;-33
2022/08/22 02:14:32;;;;;;;1.10;0.85;;;;;;;28.02;39.49;96142.84;5075634;28;20035;-33
2022/08/22 02:17:32;;;;;;;1.35;0.70;;;;;;;28.08;39.01;96145.47;5039274;28;20127;-33
2022/08/22 02:20:03;;;;;;;1.42;0.80;;;;;;;28.03;39.22;96143.59;5075592;28;20090;-33
2022/08/22 02:22:41;;;;;;;0.70;0.70;;;;;;;28.04;39.00;96140.25;5075491;28;20017;-33
2022/08/22 02:25:23;;;;;;;1.08;0.65;;;;;;;28.04;39.18;96145.84;5075790;28;20028;-33
2022/08/22 02:27:57;;;;;;;2.08;1.00;;;;;;;28.03;38.75;96138.03;5075360;28;20020;-33
2022/08/22 02:30:43;;;;;;;0.63;0.60;;;;;;;28.04;38.95;96139.53;5075725;28;20025;-33
2022/08/22 02:33:20;;;;;;;1.58;0.80;;;;;;;28.05;38.30;96135.44;5075232;28;20028;-33
2022/08/22 02:35:53;;;;;;;0.73;0.60;;;;;;;28.02;38.64;96139.31;5075285;28;20521;-33
2022/08/22 02:38:28;;;;;;;1.15;0.70;;;;;;;28.01;39.12;96135.78;5075285;28;20077;-33
2022/08/22 02:41:25;;;;;;;1.52;0.70;;;;;;;27.99;39.06;96132.78;5075213;28;20029;-33
2022/08/22 02:43:57;;;;;;;0.80;0.68;;;;;;;28.02;38.97;96131.69;5074885;28;20486;-33
2022/08/22 02:46:42;;;;;;;1.20;0.70;;;;;;;28.03;38.83;96135.25;5075231;28;20085;-33
2022/08/22 02:49:10;;;;;;;2.35;0.93;;;;;;;28.03;38.88;96135.25;5075002;28;20534;-33
2022/08/22 02:51:49;;;;;;;0.73;0.70;;;;;;;28.02;38.46;96126.13;5074976;28;20037;-33
2022/08/22 02:54:37;;;;;;;0.52;0.52;;;;;;;27.99;38.89;96121.66;5074832;28;20036;-33
2022/08/22 02:57:45;;;;;;;0.80;0.60;;;;;;;27.99;38.05;96121.66;5074712;28;20020;-33
2022/08/22 03:00:16;;;;;;;0.90;0.65;;;;;;;28.00;38.07;96120.34;5059485;28;20105;-33
2022/08/22 03:03:03;;;;;;;1.05;0.75;;;;;;;27.98;38.19;96122.19;5074608;28;20020;-33
2022/08/22 03:05:37;;;;;;;0.68;0.65;;;;;;;27.97;38.50;96117.91;5074692;28;20024;-33
2022/08/22 03:08:27;;;;;;;1.10;0.70;;;;;;;27.93;38.44;96121.06;5074466;28;20470;-33
2022/08/22 03:11:16;;;;;;;0.82;0.63;;;;;;;27.97;37.80;96123.47;5074571;28;20029;-33
2022/08/22 03:13:51;;;;;;;0.60;0.55;;;;;;;27.96;38.57;96128.31;5074511;28;20032;-33
2022/08/22 03:16:34;;;;;;;1.17;0.55;;;;;;;27.93;38.65;96123.84;5074391;28;20028;-33
2022/08/22 03:19:27;;;;;;;0.88;0.70;;;;;;;27.95;37.94;96121.25;5074427;28;20024;-33
2022/08/22 03:22:02;;;;;;;0.70;0.70;;;;;;;27.86;38.18;96119.72;5074282;28;20480;-33
2022/08/22 03:24:35;;;;;;;0.82;0.60;;;;;;;27.93;38.02;96121.06;5074529;28;20020;-33
2022/08/22 03:27:17;;;;;;;0.70;0.63;;;;;;;27.94;37.93;96119.78;5074308;28;20174;-33
2022/08/22 03:29:49;;;;;;;1.17;0.70;;;;;;;27.94;37.86;96114.22;5074067;28;20024;-33
2022/08/22 03:32:17;;;;;;;0.88;0.80;;;;;;;27.98;37.65;96113.84;5074275;28;20016;-33
2022/08/22 03:35:02;;;;;;;1.13;0.60;;;;;;;27.96;38.23;96110.84;5073970;28;20024;-33
2022/08/22 03:37:39;;;;;;;0.70;0.60;;;;;;;27.96;38.16;96110.84;5073813;28;20163;-33
2022/08/22 03:40:23;;;;;;;0.80;0.70;;;;;;;27.96;38.01;96111.59;5056111;28;20020;-33
2022/08/22 03:42:48;;;;;;;1.27;0.60;;;;;;;27.98;38.16;96117.38;5073828;28;20132;-33
2022/08/22 03:45:33;;;;;;;1.48;0.80;;;;;;;27.92;38.25;96111.22;5073870;28;20099;-33
2022/08/22 03:48:20;;;;;;;0.98;0.60;;;;;;;27.88;38.71;96113.59;5073776;28;20054;-33
2022/08/22 03:51:00;;;;;;;0.80;0.70;;;;;;;27.94;38.06;96114.22;5073748;28;20029;-33
2022/08/22 03:53:44;;;;;;;0.60;0.60;;;;;;;27.92;38.32;96116.78;5073708;28;20032;-33
2022/08/22 03:56:15;;;;;;;0.85;0.60;;;;;;;27.95;37.96;96110.09;5073653;28;20378;-33
2022/08/22 03:58:59;;;;;;;0.75;0.65;;;;;;;27.92;38.36;96121.63;5055815;28;20025;-33
2022/08/22 04:01:52;;;;;;;1.08;0.70;;;;;;;27.92;37.75;96121.63;5073782;28;20099;-33
2022/08/22 04:04:59;;;;;;;0.60;0.60;;;;;;;27.93;38.16;96120.31;5073324;28;20021;-33
2022/08/22 04:07:45;;;;;;;0.70;0.70;;;;;;;27.89;37.95;96123.47;5073510;28;20402;-33
2022/08/22 04:10:43;;;;;;;1.08;0.80;;;;;;;27.89;38.40;96129.03;5073524;28;20024;-33
2022/08/22 04:13:37;;;;;;;0.82;0.70;;;;;;;27.90;37.81;96130.53;5073628;28;20031;-33
2022/08/22 04:17:00;;;;;;;0.70;0.70;;;;;;;27.92;37.54;96132.78;5073540;28;20021;-33
2022/08/22 04:19:41;;;;;;;1.75;0.80;;;;;;;27.92;37.72;96138.34;5073330;28;20054;-33
2022/08/22 04:22:10;;;;;;;1.40;0.75;;;;;;;27.95;37.48;96143.53;5073422;28;20390;-33
2022/08/22 04:24:49;;;;;;;0.55;0.50;;;;;;;27.88;37.69;96147.06;5073295;28;20024;-33
2022/08/22 04:27:39;;;;;;;0.63;0.55;;;;;;;27.88;37.70;96147.78;5073336;28;20081;-33
2022/08/22 04:30:16;;;;;;;0.70;0.60;;;;;;;27.81;37.79;96144.97;5073546;28;20470;-33
2022/08/22 04:32:58;;;;;;;0.70;0.60;;;;;;;27.90;37.80;96150.03;5073257;28;20032;-33
2022/08/22 04:35:39;;;;;;;1.17;0.80;;;;;;;27.82;37.56;96152.75;5055317;28;20423;-33
2022/08/22 04:38:32;;;;;;;0.55;0.55;;;;;;;27.91;37.52;96142.41;5073591;28;20083;-33
2022/08/22 04:41:08;;;;;;;0.70;0.60;;;;;;;27.85;37.90;96153.72;5073386;28;20024;-33
2022/08/22 04:43:56;;;;;;;0.60;0.55;;;;;;;27.85;37.77;96145.34;5072704;28;20051;-33
2022/08/22 04:46:25;;;;;;;0.63;0.60;;;;;;;27.86;38.15;96155.22;5073078;28;20070;-33
2022/08/22 04:49:04;;;;;;;1.10;0.68;;;;;;;27.86;37.30;96161.53;5073148;28;20078;-33
2022/08/22 04:51:34;;;;;;;1.17;0.70;;;;;;;27.85;37.49;96145.34;5073296;28;20066;-33
2022/08/22 04:54:21;;;;;;;0.60;0.60;;;;;;;27.78;36.83;96146.81;5072874;28;20017;-33
2022/08/22 04:57:07;;;;;;;0.73;0.70;;;;;;;27.82;37.59;96149.97;5072988;28;20021;-33
2022/08/22 04:59:34;;;;;;;0.70;0.70;;;;;;;27.91;37.69;96156.34;5073033;28;20528;-33
2022/08/22 05:02:05;;;;;;;0.70;0.60;;;;;;;27.85;37.44;96157.25;5073031;28;20081;-33
2022/08/22 05:04:39;;;;;;;0.70;0.70;;;;;;;27.84;37.51;96161.31;5072873;28;20466;-33
2022/08/22 05:07:19;;;;;;;0.63;0.63;;;;;;;27.82;37.22;96160.38;5073161;28;20142;-33
2022/08/22 05:09:57;;;;;;;0.82;0.75;;;;;;;27.81;37.70;96162.44;5072961;28;20479;-33
2022/08/22 05:12:32;;;;;;;0.77;0.68;;;;;;;27.82;37.29;96163.16;5072678;28;20025;-33
2022/08/22 05:15:12;;;;;;;0.90;0.50;;;;;;;27.86;36.92;96163.56;5074314;28;20048;-33
2022/08/22 05:17:41;;;;;;;0.90;0.52;;;;;;;27.83;37.69;96161.88;5076722;28;20028;-33
2022/08/22 05:20:12;;;;;;;0.80;0.65;;;;;;;27.90;37.29;96163.97;5076726;28;20032;-33
2022/08/22 05:22:44;;;;;;;0.63;0.60;;;;;;;27.91;37.45;96162.69;5076626;28;20021;-33
2022/08/22 05:25:16;;;;;;;1.43;0.70;;;;;;;27.84;37.00;96171.72;5076692;28;20409;-33
2022/08/22 05:27:49;;;;;;;0.63;0.63;;;;;;;27.86;37.02;96174.72;5076493;28;20288;-33
2022/08/22 05:30:24;;;;;;;0.65;0.65;;;;;;;27.82;37.25;96179.88;5076534;28;20537;-33
2022/08/22 05:32:50;;;;;;;0.73;0.70;;;;;;;27.85;37.41;96179.53;5076505;28;20025;-33
2022/08/22 05:35:18;;;;;;;0.70;0.55;;;;;;;27.84;37.32;96178.03;5076489;28;20512;-33
2022/08/22 05:37:47;;;;;;;0.75;0.50;;;;;;;27.81;37.26;96184.75;5076237;28;20081;-33
2022/08/22 05:40:20;;;;;;;1.10;0.65;;;;;;;27.81;37.13;96186.78;5076156;28;20032;-33
2022/08/22 05:42:46;;;;;;;0.90;0.60;;;;;;;27.81;37.27;96187.53;5076106;28;20044;-33
2022/08/22 05:45:13;;;;;;;0.60;0.50;;;;;;;27.80;37.42;96194.38;5058635;28;20108;-33
2022/08/22 05:47:44;;;;;;;0.80;0.80;;;;;;;27.85;37.34;96187.91;5076006;28;20466;-33
2022/08/22 05:50:18;;;;;;;0.65;0.60;;;;;;;27.81;37.35;96195.13;5076183;28;20519;-33
2022/08/22 05:52:53;;;;;;;0.70;0.70;;;;;;;27.84;37.25;96189.19;5075144;28;20480;-33
2022/08/22 05:55:40;;;;;;;0.50;0.43;;;;;;;27.81;36.98;96195.88;5056445;28;20553;-33
2022/08/22 05:58:33;;;;;;;0.65;0.60;;;;;;;27.81;37.38;96189.56;5074294;28;20549;-33
2022/08/22 06:01:16;;;;;;;1.48;0.98;;;;;;;27.87;37.27;96190.16;5074097;28;20067;-33
2022/08/22 06:04:10;;;;;;;0.88;0.60;;;;;;;27.80;37.48;96185.28;5074161;28;20052;-33
2022/08/22 06:06:48;;;;;;;0.85;0.80;;;;;;;27.83;37.63;96189.75;5055880;28;20028;-33
2022/08/22 06:09:21;;;;;;;1.52;0.70;;;;;;;27.85;37.41;96196.25;5074027;28;20020;-33
2022/08/22 06:12:13;;;;;;;0.60;0.60;;;;;;;27.80;37.72;96193.63;5074053;28;20053;-33
2022/08/22 06:14:50;;;;;;;0.90;0.60;;;;;;;27.82;37.28;96196.59;5074105;28;20389;-33
2022/08/22 06:17:25;;;;;;;0.95;0.65;;;;;;;27.83;37.36;96203.66;5073712;28;20382;-33
2022/08/22 06:19:53;;;;;;;0.95;0.60;;;;;;;27.78;37.65;96196.97;5072001;28;20390;-33
2022/08/22 06:22:24;;;;;;;0.70;0.60;;;;;;;27.83;37.70;96204.41;5073837;28;20043;-33
2022/08/22 06:24:53;;;;;;;0.82;0.47;;;;;;;27.86;37.03;96199.78;5055775;28;20165;-33
2022/08/22 06:27:23;;;;;;;1.17;0.65;;;;;;;27.82;37.35;96202.94;5073488;28;20096;-34
2022/08/22 06:29:59;;;;;;;0.93;0.80;;;;;;;27.83;37.24;96200.88;5073432;28;20020;-33
2022/08/22 06:32:28;;;;;;;1.33;0.70;;;;;;;27.83;37.24;96204.41;5073113;28;20029;-33
2022/08/22 06:35:01;;;;;;;1.42;0.75;;;;;;;27.84;37.62;96200.34;5073431;28;20029;-33
2022/08/22 06:37:38;;;;;;;1.00;0.90;;;;;;;27.85;37.92;96212.22;5080174;28;20053;-33
2022/08/22 06:40:06;;;;;;;0.90;0.80;;;;;;;27.81;37.64;96214.63;5090610;28;20047;-33
2022/08/22 06:42:36;;;;;;;1.05;0.90;;;;;;;27.83;37.42;96212.03;5092749;28;20113;-33
2022/08/22 06:45:07;;;;;;;0.85;0.77;;;;;;;27.83;37.63;96212.78;5075130;28;20444;-33
2022/08/22 06:47:36;;;;;;;1.13;0.98;;;;;;;27.82;37.10;96207.75;5092819;28;20036;-33
2022/08/22 06:50:08;;;;;;;1.15;0.68;;;;;;;27.83;37.61;96217.59;5090245;28;20031;-33
2022/08/22 06:52:46;;;;;;;0.90;0.80;;;;;;;27.85;37.77;96220.59;5092764;28;20024;-33
2022/08/22 06:55:13;;;;;;;1.17;0.98;;;;;;;27.85;37.64;96212.22;5093247;28;20024;-33
2022/08/22 06:57:47;;;;;;;0.75;0.75;;;;;;;27.76;37.64;96218.31;5093135;28;20027;-33
2022/08/22 07:00:16;;;;;;;0.85;0.73;;;;;;;27.85;37.38;96220.59;5093135;28;20063;-33
2022/08/22 07:02:46;;;;;;;1.33;0.90;;;;;;;27.76;37.22;96224.63;5093167;28;20028;-33
2022/08/22 07:05:23;;;;;;;0.88;0.68;;;;;;;27.79;37.51;96231.16;5093019;28;20496;-33
2022/08/22 07:07:49;;;;;;;0.82;0.70;;;;;;;27.81;37.54;96218.19;5074734;28;20035;-33
2022/08/22 07:10:16;;;;;;;0.80;0.80;;;;;;;27.82;37.96;96225.22;5093089;28;20032;-33
2022/08/22 07:12:49;;;;;;;1.58;1.00;;;;;;;27.72;37.52;96223.47;5092564;28;20023;-33
2022/08/22 07:15:38;;;;;;;1.10;0.93;;;;;;;27.74;37.71;96224.44;5092881;28;20028;-33
2022/08/22 07:18:17;;;;;;;1.05;0.70;;;;;;;27.71;37.66;96219.19;5090480;28;20283;-33
2022/08/22 07:20:48;;;;;;;1.85;0.80;;;;;;;27.80;37.58;96218.72;5074602;28;20393;-33
2022/08/22 07:23:34;;;;;;;0.80;0.70;;;;;;;27.79;37.57;96220.00;5092892;28;20027;-33
2022/08/22 07:26:22;;;;;;;1.00;0.80;;;;;;;27.81;37.74;96215.38;5092860;28;20097;-33
2022/08/22 07:28:52;;;;;;;1.80;0.80;;;;;;;27.78;37.49;96210.91;5092414;28;20065;-33
2022/08/22 07:31:21;;;;;;;1.50;0.80;;;;;;;27.70;37.70;96210.09;5092589;28;20469;-33
2022/08/22 07:33:54;;;;;;;0.60;0.60;;;;;;;27.74;37.61;96209.75;5092530;28;20027;-33
2022/08/22 07:36:27;;;;;;;0.57;0.50;;;;;;;27.77;37.53;96211.44;5092326;28;20079;-33
2022/08/22 07:39:18;;;;;;;0.80;0.73;;;;;;;27.81;37.56;96217.44;5090710;28;20801;-33
2022/08/22 07:42:02;;;;;;;0.82;0.70;;;;;;;27.77;37.81;96214.22;5055647;28;20106;-32
2022/08/22 07:44:37;;;;;;;1.70;1.10;;;;;;;27.79;37.52;96220.00;5074149;28;20028;-33
2022/08/22 07:47:11;;;;;;;1.80;0.60;;;;;;;27.77;37.75;96211.44;5074096;28;20025;-33
2022/08/22 07:49:58;;;;;;;1.13;0.70;;;;;;;27.81;37.70;96220.22;5073586;28;20520;-33
2022/08/22 07:52:31;;;;;;;0.68;0.68;;;;;;;27.79;37.45;96215.19;5073707;28;20074;-33
2022/08/22 07:55:24;;;;;;;1.40;0.80;;;;;;;27.73;37.68;96211.78;5073729;28;20020;-33
2022/08/22 07:58:00;;;;;;;1.00;0.80;;;;;;;27.71;37.69;96211.59;5073562;28;20029;-33
2022/08/22 08:00:28;;;;;;;1.95;0.75;;;;;;;27.68;37.63;96211.94;5073790;28;20142;-33
2022/08/22 08:03:03;;;;;;;0.93;0.70;;;;;;;27.51;37.29;96213.09;5073692;28;20155;-33
2022/08/22 08:05:32;;;;;;;0.90;0.70;;;;;;;27.66;37.38;96218.06;5073638;28;20044;-33
2022/08/22 08:08:00;;;;;;;0.70;0.70;;;;;;;27.59;36.89;96212.41;5073715;28;20386;-33
2022/08/22 08:10:30;;;;;;;1.08;0.88;;;;;;;27.73;37.01;96217.34;5073400;28;20429;-33
2022/08/22 08:13:02;;;;;;;1.40;0.70;;;;;;;27.70;37.34;96214.91;5073353;28;20051;-33
2022/08/22 08:15:33;;;;;;;0.55;0.55;;;;;;;27.52;36.55;96220.16;5073551;28;20103;-33
2022/08/22 08:18:04;;;;;;;0.57;0.57;;;;;;;27.67;36.69;96216.03;5055579;28;20067;-33
2022/08/22 08:20:33;;;;;;;0.70;0.70;;;;;;;27.66;37.08;96217.31;5073436;28;20028;-33
2022/08/22 08:23:00;;;;;;;1.00;0.60;;;;;;;27.40;35.49;96218.19;5073275;28;20084;-33
2022/08/22 08:25:31;;;;;;;1.42;0.60;;;;;;;27.45;36.16;96226.38;5055584;28;20029;-33
2022/08/22 08:30:53;;;;;;;1.67;1.23;;;;;;;27.66;36.64;96222.88;5073123;28;20059;-33
2022/08/22 08:33:22;;;;;;;3.15;1.58;;;;;;;27.41;36.71;96214.88;5080696;28;20243;-33
2022/08/22 08:36:10;;;;;;;2.13;1.00;;;;;;;27.51;36.86;96220.69;5073307;28;20035;-33
2022/08/22 08:38:47;;;;;;;0.88;0.88;;;;;;;27.14;34.74;96219.06;5055121;28;20024;-33
2022/08/22 08:41:15;;;;;;;1.50;0.90;;;;;;;27.20;36.26;96218.94;5073259;28;20027;-33
2022/08/22 08:43:50;;;;;;;1.92;1.00;;;;;;;27.41;36.41;96226.00;5073028;28;20117;-33
2022/08/22 08:46:38;;;;;;;2.47;1.58;;;;;;;27.54;36.16;96222.41;5072977;28;20035;-33
2022/08/22 08:49:35;;;;;;;1.65;1.23;;;;;;;27.64;36.40;96220.63;5074347;28;20025;-33
2022/08/22 08:52:46;;;;;;;2.78;1.10;;;;;;;27.31;35.99;96216.63;5076977;28;20028;-33
2022/08/22 08:55:33;;;;;;;2.80;0.90;;;;;;;27.13;35.07;96217.56;5077171;28;20025;-33
2022/08/22 08:58:04;;;;;;;1.70;0.98;;;;;;;27.08;34.18;96221.97;5077044;28;20048;-33
2022/08/22 09:00:50;;;;;;;1.23;1.00;;;;;;;27.13;35.73;96223.13;5058916;28;20085;-33
2022/08/22 09:03:28;;;;;;;1.17;0.80;;;;;;;27.22;35.37;96217.09;5076650;28;20020;-33
2022/08/22 09:06:15;;;;;;;0.82;0.82;;;;;;;27.12;34.47;96227.97;5076265;28;20040;-33
2022/08/22 09:09:10;;;;;;;1.52;0.93;;;;;;;27.43;34.56;96212.28;5058810;28;20024;-33
2022/08/22 09:12:00;;;;;;;1.63;0.90;;;;;;;27.65;34.39;96218.59;5077268;28;20031;-33
2022/08/22 09:14:38;;;;;;;1.13;0.90;;;;;;;27.74;34.34;96218.09;5076668;28;20051;-33
2022/08/22 09:17:22;;;;;;;1.30;0.98;;;;;;;27.77;34.61;96217.78;5076704;28;20461;-33
2022/08/22 09:20:19;;;;;;;1.33;0.90;;;;;;;27.80;34.80;96215.94;5076543;28;20466;-33
2022/08/22 09:23:04;;;;;;;1.08;0.70;;;;;;;27.65;34.17;96207.47;5076574;28;20017;-33
2022/08/22 09:25:35;;;;;;;1.55;0.98;;;;;;;27.75;33.61;96206.41;5079920;28;20021;-33
2022/08/22 09:28:10;;;;;;;2.03;0.77;;;;;;;27.66;34.29;96209.69;5092110;28;20028;-33
2022/08/22 09:31:00;;;;;;;1.20;1.10;;;;;;;27.52;34.12;96208.25;5096389;28;20024;-33
2022/08/22 09:33:37;;;;;;;0.80;0.80;;;;;;;27.74;34.77;96212.53;5095883;28;20082;-33
2022/08/22 09:36:17;;;;;;;1.50;1.05;;;;;;;27.85;34.99;96215.03;5078555;28;20413;-33
2022/08/22 09:39:27;;;;;;;1.83;1.20;;;;;;;27.85;35.21;96204.63;5100163;28;20465;-33
2022/08/22 09:41:58;;;;;;;1.77;1.40;;;;;;;27.87;34.61;96213.19;5010429;28;20127;-33
2022/08/22 09:44:33;;;;;;;2.10;1.73;;;;;;;27.88;35.05;96217.47;5075934;28;20560;-33
2022/08/22 09:47:30;;;;;;;1.70;1.30;;;;;;;27.96;34.72;96219.53;5075493;28;20032;-33
2022/08/22 09:50:12;;;;;;;1.67;1.40;;;;;;;27.89;34.70;96215.44;5073116;28;20040;-33
2022/08/22 09:52:46;;;;;;;1.75;1.40;;;;;;;27.93;35.06;96215.84;5074335;28;20158;-33
2022/08/22 09:55:38;;;;;;;2.72;1.40;;;;;;;27.94;34.36;96219.38;5074280;28;20024;-33
2022/08/22 09:58:41;;;;;;;1.90;1.15;;;;;;;27.99;34.41;96210.09;5073978;28;20385;-33
2022/08/22 10:01:31;;;;;;;1.35;1.02;;;;;;;27.97;33.95;96207.84;5072810;28;20031;-33
2022/08/22 10:04:45;;;;;;;1.55;1.20;;;;;;;27.99;34.31;96208.06;5074093;28;20028;-33
2022/08/22 10:07:14;;;;;;;1.77;1.30;;;;;;;28.00;34.40;96203.22;5056803;28;20090;-33
2022/08/22 10:10:00;;;;;;;1.20;1.00;;;;;;;27.63;32.78;96202.44;5073798;28;20028;-33
2022/08/22 10:12:42;;;;;;;1.20;1.10;;;;;;;27.74;33.53;96201.38;5073678;28;20028;-33
2022/08/22 10:15:26;;;;;;;1.45;1.17;;;;;;;27.87;33.39;96199.25;5073967;28;20031;-33
2022/08/22 10:18:21;;;;;;;2.72;0.90;;;;;;;27.96;34.25;96192.41;5073924;28;20107;-33
2022/08/22 10:21:02;;;;;;;1.88;1.25;;;;;;;27.91;34.04;96195.38;5064572;28;20509;-33
2022/08/22 10:23:51;;;;;;;1.08;0.98;;;;;;;28.05;34.32;96194.72;5054094;28;20166;-33
2022/08/22 10:26:33;;;;;;;2.00;1.20;;;;;;;28.06;33.24;96190.66;5073800;28;20039;-33
2022/08/22 10:29:25;;;;;;;1.77;0.90;;;;;;;28.00;33.99;96190.03;5073975;28;20064;-33
2022/08/22 10:32:05;;;;;;;1.48;0.85;;;;;;;28.00;33.78;96190.03;5057606;28;20490;-33
2022/08/22 10:34:41;;;;;;;1.60;0.80;;;;;;;28.05;34.03;96186.34;5073247;28;20033;-33
2022/08/22 10:37:16;;;;;;;1.10;0.98;;;;;;;28.01;34.44;96185.97;5073372;28;20100;-33
2022/08/22 10:40:05;;;;;;;0.90;0.77;;;;;;;28.05;34.04;96180.03;5073468;28;20032;-33
2022/08/22 10:42:41;;;;;;;1.77;0.77;;;;;;;28.02;34.08;96181.88;5073230;28;20123;-33
2022/08/22 10:45:16;;;;;;;0.95;0.85;;;;;;;28.03;34.87;96179.84;5073453;28;20091;-33
2022/08/22 10:48:05;;;;;;;1.35;1.13;;;;;;;28.06;33.95;96176.69;5073216;28;20024;-33
2022/08/22 10:50:35;;;;;;;1.45;1.13;;;;;;;28.17;33.70;96175.63;5016400;28;20106;-33
2022/08/22 10:53:29;;;;;;;1.77;0.90;;;;;;;28.05;33.63;96183.56;5073202;28;20511;-33
2022/08/22 10:56:33;;;;;;;0.80;0.70;;;;;;;28.07;33.79;96178.16;5073121;28;20039;-33
2022/08/22 10:59:17;;;;;;;1.00;0.90;;;;;;;28.06;34.02;96179.50;5072173;28;20369;-33
2022/08/22 11:02:23;;;;;;;0.80;0.70;;;;;;;28.11;33.81;96169.47;5073091;28;20097;-33
2022/08/22 11:05:27;;;;;;;1.00;0.90;;;;;;;28.02;34.36;96170.72;5050107;28;20044;-33
2022/08/22 11:08:05;;;;;;;0.70;0.70;;;;;;;28.14;34.60;96166.31;5075947;28;20032;-33
2022/08/22 11:10:30;;;;;;;0.93;0.82;;;;;;;28.16;34.38;96172.09;5102408;28;20031;-33
2022/08/22 11:13:24;;;;;;;0.90;0.90;;;;;;;28.13;34.02;96175.22;5091552;28;20036;-33
2022/08/22 11:16:08;;;;;;;1.05;0.82;;;;;;;28.16;34.56;96163.75;5042448;28;20063;-33
2022/08/22 11:19:07;;;;;;;0.70;0.70;;;;;;;28.16;34.16;96163.00;5072708;28;20533;-33
2022/08/22 11:21:38;;;;;;;0.93;0.82;;;;;;;28.18;34.77;96166.75;5072424;28;20032;-33
2022/08/22 11:24:10;;;;;;;1.00;0.90;;;;;;;28.16;34.81;96169.31;5072295;28;20021;-33
2022/08/22 11:26:51;;;;;;;1.30;0.80;;;;;;;28.19;34.39;96161.91;5091754;28;20613;-33
2022/08/22 11:29:37;;;;;;;0.80;0.80;;;;;;;28.17;34.29;96153.34;5113185;28;20019;-32
2022/08/22 11:32:33;;;;;;;0.77;0.70;;;;;;;28.15;34.41;96153.13;5113079;28;20024;-33
2022/08/22 11:35:20;;;;;;;1.90;0.95;;;;;;;28.19;34.09;96151.50;5112818;28;20098;-33
2022/08/22 11:38:05;;;;;;;0.82;0.80;;;;;;;28.26;34.38;96146.50;5112845;28;20431;-33
2022/08/22 11:40:43;;;;;;;0.82;0.80;;;;;;;28.17;34.42;96145.72;5112684;28;20031;-33
2022/08/22 11:43:29;;;;;;;1.35;1.00;;;;;;;28.11;34.57;96150.69;5104827;28;20105;-33
2022/08/22 11:45:59;;;;;;;0.80;0.60;;;;;;;28.20;34.46;96149.44;5094049;28;20027;-33
2022/08/22 11:48:42;;;;;;;1.05;0.68;;;;;;;28.18;34.46;96144.44;5094341;28;20024;-33
2022/08/22 11:51:16;;;;;;;0.95;0.80;;;;;;;28.17;34.35;96131.78;5077167;28;20027;-33
2022/08/22 11:53:48;;;;;;;1.00;0.85;;;;;;;28.21;33.77;96140.53;5062363;28;20032;-33
2022/08/22 11:56:31;;;;;;;0.80;0.75;;;;;;;28.24;34.24;96127.53;5061949;28;20043;-33
2022/08/22 11:59:06;;;;;;;0.80;0.80;;;;;;;28.25;34.02;96126.25;5062864;28;20054;-33
2022/08/22 12:01:49;;;;;;;1.52;0.75;;;;;;;28.23;34.53;96117.69;5063200;28;20024;-33
2022/08/22 12:04:27;;;;;;;1.33;1.05;;;;;;;28.26;34.08;96118.63;5064114;28;20362;-33
2022/08/22 12:07:01;;;;;;;1.00;0.90;;;;;;;28.28;34.36;96119.56;5062735;28;20032;-33
2022/08/22 12:09:56;;;;;;;0.68;0.57;;;;;;;28.27;34.23;96117.31;5063370;28;20067;-33
2022/08/22 12:12:55;;;;;;;0.80;0.80;;;;;;;28.29;34.25;96111.94;5063515;28;20024;-33
2022/08/22 12:15:20;;;;;;;0.98;0.82;;;;;;;28.30;34.22;96116.22;5062785;28;20381;-33
2022/08/22 12:18:31;;;;;;;0.80;0.80;;;;;;;28.27;34.37;96111.75;5063352;28;20030;-33
2022/08/22 12:21:21;;;;;;;0.93;0.85;;;;;;;28.23;34.13;96112.09;5027412;28;20040;-33
2022/08/22 12:24:05;;;;;;;0.85;0.80;;;;;;;28.27;34.09;96106.19;5061573;28;20039;-34
2022/08/22 12:26:47;;;;;;;1.02;0.68;;;;;;;28.32;34.14;96108.03;5061885;28;20036;-33
2022/08/22 12:29:24;;;;;;;0.73;0.70;;;;;;;28.27;34.26;96106.19;5062782;28;20470;-33
2022/08/22 12:32:02;;;;;;;0.85;0.85;;;;;;;28.28;34.75;96111.19;5062356;28;20056;-33
2022/08/22 12:34:46;;;;;;;0.90;0.80;;;;;;;28.29;34.20;96103.59;5046312;28;20485;-33
2022/08/22 12:37:23;;;;;;;1.13;0.75;;;;;;;28.33;34.41;96103.94;5044245;28;20028;-33
2022/08/22 12:39:58;;;;;;;1.48;0.73;;;;;;;28.30;33.91;96100.25;5053935;28;20872;-33